Time;durP1;ratioP1;P1;durP2;ratioP2;P2;SDS_P1;SDS_P2;PMS_P1;PMS_P2;Temp;Humidity;BMP_temperature;BMP_pressure;BME280_temperature;BME280_humidity;BME280_pressure;Samples;Min_cycle;Max_cycle;Signal;HPM_P1;HPM_P2
2022/04/20 00:00:20;;;;;;;;;;;;;;;-155.54;100.00;57697.75;5038504;28;20024;-62
2022/04/20 00:02:46;;;;;;;;;;;;;;;-155.54;100.00;57697.75;5038408;28;20028;-62
2022/04/20 00:05:11;;;;;;;;;;;;;;;-155.54;100.00;57697.75;5024195;28;20027;-63
2022/04/20 00:07:37;;;;;;;;;;;;;;;-155.54;100.00;57697.75;5012559;28;20067;-63
2022/04/20 00:10:03;;;;;;;;;;;;;;;-155.54;100.00;57697.75;4986897;28;19998;-63
2022/04/20 00:12:28;;;;;;;;;;;;;;;-155.54;100.00;57697.75;4995072;28;20471;-63
2022/04/20 00:14:53;;;;;;;;;;;;;;;-155.54;100.00;57697.75;5001651;28;20018;-63
2022/04/20 00:17:20;;;;;;;;;;;;;;;-155.54;100.00;57697.75;5001275;28;20009;-63
2022/04/20 00:19:45;;;;;;;;;;;;;;;-155.54;100.00;57697.75;5001693;28;20013;-62
2022/04/20 00:22:10;;;;;;;;;;;;;;;-155.54;100.00;57697.75;5001729;28;20460;-63
2022/04/20 00:24:35;;;;;;;;;;;;;;;-155.54;100.00;57697.75;5001505;28;20570;-63
2022/04/20 00:27:01;;;;;;;;;;;;;;;-155.54;100.00;57697.75;5001137;28;20004;-63
2022/04/20 00:29:26;;;;;;;;;;;;;;;-155.54;100.00;57697.75;5002272;28;20016;-62
2022/04/20 00:31:51;;;;;;;;;;;;;;;-155.54;100.00;57697.75;5001021;28;20416;-62
2022/04/20 00:34:16;;;;;;;;;;;;;;;-155.54;100.00;57697.75;5001679;28;20007;-63
2022/04/20 00:36:42;;;;;;;;;;;;;;;-155.54;100.00;57697.75;5001463;28;20027;-63
2022/04/20 00:39:07;;;;;;;;;;;;;;;-155.54;100.00;57697.75;4998464;28;20365;-63
2022/04/20 00:41:32;;;;;;;;;;;;;;;-155.54;100.00;57697.75;5000138;28;20354;-63
2022/04/20 00:43:58;;;;;;;;;;;;;;;-155.54;100.00;57697.75;5000721;28;20059;-63
2022/04/20 00:46:24;;;;;;;;;;;;;;;-155.54;100.00;57697.75;5001472;28;20412;-63
2022/04/20 00:48:50;;;;;;;;;;;;;;;-155.54;100.00;57697.75;5001569;28;19984;-63
2022/04/20 00:51:15;;;;;;;;;;;;;;;-155.54;100.00;57697.75;4999369;28;20193;-63
2022/04/20 00:53:40;;;;;;;;;;;;;;;-155.54;100.00;57697.75;5001112;28;20033;-62
2022/04/20 00:56:05;;;;;;;;;;;;;;;-155.54;100.00;57697.75;5002197;28;20483;-63
2022/04/20 00:58:31;;;;;;;;;;;;;;;-155.54;100.00;57697.75;5013211;28;20389;-63
2022/04/20 01:00:56;;;;;;;;;;;;;;;-155.54;100.00;57697.75;4987039;28;20360;-63
2022/04/20 01:03:21;;;;;;;;;;;;;;;-155.54;100.00;57697.75;4991594;28;20033;-63
2022/04/20 01:05:46;;;;;;;;;;;;;;;-155.54;100.00;57697.75;5019653;28;19988;-63
2022/04/20 01:08:12;;;;;;;;;;;;;;;-155.54;100.00;57697.75;5019694;28;19986;-62
2022/04/20 01:10:37;;;;;;;;;;;;;;;-155.54;100.00;57697.75;5022938;28;19962;-63
2022/04/20 01:13:02;;;;;;;;;;;;;;;-155.54;100.00;57697.75;4986084;28;20709;-63
2022/04/20 01:15:27;;;;;;;;;;;;;;;-155.54;100.00;57697.75;4982303;28;20152;-62
2022/04/20 01:17:53;;;;;;;;;;;;;;;-155.54;100.00;57697.75;4999811;28;19969;-63
2022/04/20 01:20:18;;;;;;;;;;;;;;;-155.54;100.00;57697.75;4997360;28;20004;-63
2022/04/20 01:22:43;;;;;;;;;;;;;;;-155.54;100.00;57697.75;5001477;28;20029;-63
2022/04/20 01:25:09;;;;;;;;;;;;;;;-155.54;100.00;57697.75;4988871;28;19993;-64
2022/04/20 01:27:37;;;;;;;;;;;;;;;-155.54;100.00;57697.75;5001300;28;20454;-63
2022/04/20 01:30:02;;;;;;;;;;;;;;;-155.54;100.00;57697.75;4986065;28;20042;-63
2022/04/20 01:32:27;;;;;;;;;;;;;;;-155.54;100.00;57697.75;5001752;28;20028;-63
2022/04/20 01:34:53;;;;;;;;;;;;;;;-155.54;100.00;57697.75;5000867;28;20124;-60
2022/04/20 01:37:18;;;;;;;;;;;;;;;-155.54;100.00;57697.75;4999600;28;19986;-61
2022/04/20 01:39:44;;;;;;;;;;;;;;;-155.54;100.00;57697.75;4993816;28;19993;-60
2022/04/20 01:42:10;;;;;;;;;;;;;;;-155.54;100.00;57697.75;4999756;28;20059;-60
2022/04/20 01:44:36;;;;;;;;;;;;;;;-155.54;100.00;57697.75;4998339;28;19997;-59
2022/04/20 01:47:01;;;;;;;;;;;;;;;-155.54;100.00;57697.75;4989431;28;19966;-62
2022/04/20 01:49:26;;;;;;;;;;;;;;;-155.54;100.00;57697.75;4990035;28;20128;-62
2022/04/20 01:51:52;;;;;;;;;;;;;;;-155.54;100.00;57697.75;5014794;28;20012;-62
2022/04/20 01:54:18;;;;;;;;;;;;;;;-155.54;100.00;57697.75;5027583;28;19973;-62
2022/04/20 01:56:45;;;;;;;;;;;;;;;-155.54;100.00;57697.75;5039392;28;20014;-59
2022/04/20 01:59:11;;;;;;;;;;;;;;;-155.54;100.00;57697.75;5024094;28;20265;-63
2022/04/20 02:04:20;;;;;;;;;;;;;;;-155.54;100.00;57697.75;4992015;28;19999;-63
2022/04/20 02:06:45;;;;;;;;;;;;;;;-155.54;100.00;57697.75;4981767;28;19970;-63
2022/04/20 02:09:10;;;;;;;;;;;;;;;-155.54;100.00;57697.75;4995469;28;20073;-62
2022/04/20 02:11:35;;;;;;;;;;;;;;;-155.54;100.00;57697.75;4997769;28;20014;-63
2022/04/20 02:14:01;;;;;;;;;;;;;;;-155.54;100.00;57697.75;4992240;28;19989;-63
2022/04/20 02:16:26;;;;;;;;;;;;;;;-155.54;100.00;57697.75;4988168;28;20020;-62
2022/04/20 02:18:51;;;;;;;;;;;;;;;-155.54;100.00;57697.75;5001432;28;20107;-63
2022/04/20 02:21:16;;;;;;;;;;;;;;;-155.54;100.00;57697.75;4988636;28;20034;-63
2022/04/20 02:23:42;;;;;;;;;;;;;;;-155.54;100.00;57697.75;5000472;28;19990;-63
2022/04/20 02:26:07;;;;;;;;;;;;;;;-155.54;100.00;57697.75;4991126;28;19997;-63
2022/04/20 02:28:32;;;;;;;;;;;;;;;-155.54;100.00;57697.75;5009204;28;19981;-59
2022/04/20 02:30:58;;;;;;;;;;;;;;;-155.54;100.00;57697.75;5037333;28;20044;-63
2022/04/20 02:33:23;;;;;;;;;;;;;;;-155.54;100.00;57697.75;5028659;28;20201;-63
2022/04/20 02:35:48;;;;;;;;;;;;;;;-155.54;100.00;57697.75;5017976;28;20447;-63
2022/04/20 02:38:17;;;;;;;;;;;;;;;-155.54;100.00;57697.75;5001870;28;20012;-63
2022/04/20 02:40:42;;;;;;;;;;;;;;;-155.54;100.00;57697.75;5004201;28;20379;-63
2022/04/20 02:43:07;;;;;;;;;;;;;;;-155.54;100.00;57697.75;4991768;28;19986;-63
2022/04/20 02:45:33;;;;;;;;;;;;;;;-155.54;100.00;57697.75;5023933;28;20345;-63
2022/04/20 02:47:59;;;;;;;;;;;;;;;-155.54;100.00;57697.75;5011379;28;19994;-63
2022/04/20 02:50:24;;;;;;;;;;;;;;;-155.54;100.00;57697.75;5021768;28;19968;-63
2022/04/20 02:52:49;;;;;;;;;;;;;;;-155.54;100.00;57697.75;5018959;28;19997;-63
2022/04/20 02:55:14;;;;;;;;;;;;;;;-155.54;100.00;57697.75;5016266;28;19966;-63
2022/04/20 02:57:40;;;;;;;;;;;;;;;-155.54;100.00;57697.75;5015266;28;20501;-63
2022/04/20 03:00:05;;;;;;;;;;;;;;;-155.54;100.00;57697.75;5019389;28;20000;-62
2022/04/20 03:02:31;;;;;;;;;;;;;;;-155.54;100.00;57697.75;5011044;28;19993;-62
2022/04/20 03:04:56;;;;;;;;;;;;;;;-155.54;100.00;57697.75;5010645;28;20051;-61
2022/04/20 03:07:22;;;;;;;;;;;;;;;-155.54;100.00;57697.75;5021184;28;20446;-62
2022/04/20 03:09:47;;;;;;;;;;;;;;;-155.54;100.00;57697.75;4987548;28;20082;-62
2022/04/20 03:12:13;;;;;;;;;;;;;;;-155.54;100.00;57697.75;4998476;28;19989;-59
2022/04/20 03:14:38;;;;;;;;;;;;;;;-155.54;100.00;57697.75;4987767;28;20016;-62
2022/04/20 03:17:03;;;;;;;;;;;;;;;-155.54;100.00;57697.75;5036031;28;19998;-61
2022/04/20 03:19:28;;;;;;;;;;;;;;;-155.54;100.00;57697.75;5013515;28;19989;-62
2022/04/20 03:21:54;;;;;;;;;;;;;;;-155.54;100.00;57697.75;4984341;28;20295;-62
2022/04/20 03:24:19;;;;;;;;;;;;;;;-155.54;100.00;57697.75;4983871;28;20309;-61
2022/04/20 03:26:45;;;;;;;;;;;;;;;-155.54;100.00;57697.75;4991464;28;20427;-61
2022/04/20 03:29:10;;;;;;;;;;;;;;;-155.54;100.00;57697.75;4992456;28;20207;-62
2022/04/20 03:31:38;;;;;;;;;;;;;;;-155.54;100.00;57697.75;5001167;28;20051;-60
2022/04/20 03:34:03;;;;;;;;;;;;;;;-155.54;100.00;57697.75;5003103;28;20043;-61
2022/04/20 03:36:28;;;;;;;;;;;;;;;-155.54;100.00;57697.75;5001633;28;20080;-61
2022/04/20 03:38:54;;;;;;;;;;;;;;;-155.54;100.00;57697.75;4993372;28;19968;-61
2022/04/20 03:41:22;;;;;;;;;;;;;;;-155.54;100.00;57697.75;4994616;28;19984;-62
2022/04/20 03:43:47;;;;;;;;;;;;;;;-155.54;100.00;57697.75;5003326;28;20067;-61
2022/04/20 03:46:12;;;;;;;;;;;;;;;-155.54;100.00;57697.75;4992570;28;20309;-61
2022/04/20 03:48:37;;;;;;;;;;;;;;;-155.54;100.00;57697.75;5000826;28;20099;-61
2022/04/20 03:51:03;;;;;;;;;;;;;;;-155.54;100.00;57697.75;4993512;28;19966;-61
2022/04/20 03:53:28;;;;;;;;;;;;;;;-155.54;100.00;57697.75;4985221;28;20080;-61
2022/04/20 03:55:53;;;;;;;;;;;;;;;-155.54;100.00;57697.75;4995643;28;20566;-61
2022/04/20 03:58:18;;;;;;;;;;;;;;;-155.54;100.00;57697.75;4997140;28;19965;-61
2022/04/20 04:00:44;;;;;;;;;;;;;;;-155.54;100.00;57697.75;5019900;28;20431;-61
2022/04/20 04:03:09;;;;;;;;;;;;;;;-155.54;100.00;57697.75;5033544;28;19993;-61
2022/04/20 04:05:34;;;;;;;;;;;;;;;-155.54;100.00;57697.75;5035210;28;20146;-61
2022/04/20 04:07:59;;;;;;;;;;;;;;;-155.54;100.00;57697.75;5014904;28;20084;-61
2022/04/20 04:10:25;;;;;;;;;;;;;;;-155.54;100.00;57697.75;5032885;28;20072;-61
2022/04/20 04:12:50;;;;;;;;;;;;;;;-155.54;100.00;57697.75;5000109;28;20456;-61
2022/04/20 04:15:15;;;;;;;;;;;;;;;-155.54;100.00;57697.75;4983773;28;20071;-61
2022/04/20 04:17:40;;;;;;;;;;;;;;;-155.54;100.00;57697.75;4990525;28;20020;-62
2022/04/20 04:20:07;;;;;;;;;;;;;;;-155.54;100.00;57697.75;5002559;28;19994;-61
2022/04/20 04:22:32;;;;;;;;;;;;;;;-155.54;100.00;57697.75;5018292;28;20478;-61
2022/04/20 04:24:57;;;;;;;;;;;;;;;-155.54;100.00;57697.75;5023160;28;20024;-61
2022/04/20 04:27:23;;;;;;;;;;;;;;;-155.54;100.00;57697.75;5030017;28;19985;-62
2022/04/20 04:29:48;;;;;;;;;;;;;;;-155.54;100.00;57697.75;5029958;28;20181;-62
2022/04/20 04:32:13;;;;;;;;;;;;;;;-155.54;100.00;57697.75;5025850;28;19989;-61
2022/04/20 04:34:39;;;;;;;;;;;;;;;-155.54;100.00;57697.75;5017163;28;19983;-61
2022/04/20 04:37:05;;;;;;;;;;;;;;;-155.54;100.00;57697.75;4997805;28;20000;-62
2022/04/20 04:39:30;;;;;;;;;;;;;;;-155.54;100.00;57697.75;4982759;28;20538;-62
2022/04/20 04:42:02;;;;;;;;;;;;;;;-155.54;100.00;57697.75;4994528;28;20671;-62
2022/04/20 04:44:28;;;;;;;;;;;;;;;-155.54;100.00;57697.75;4989410;28;19989;-62
2022/04/20 04:49:36;;;;;;;;;;;;;;;-155.54;100.00;57697.75;5008944;28;20036;-61
2022/04/20 04:52:02;;;;;;;;;;;;;;;-155.54;100.00;57697.75;5029769;28;20159;-62
2022/04/20 04:54:28;;;;;;;;;;;;;;;-155.54;100.00;57697.75;5015425;28;20000;-62
2022/04/20 04:56:53;;;;;;;;;;;;;;;-155.54;100.00;57697.75;5041269;28;20036;-62
2022/04/20 04:59:18;;;;;;;;;;;;;;;-155.54;100.00;57697.75;5025124;28;19980;-62
2022/04/20 05:01:44;;;;;;;;;;;;;;;-155.54;100.00;57697.75;4981504;28;20016;-62
2022/04/20 05:04:11;;;;;;;;;;;;;;;-155.54;100.00;57697.75;4981887;28;19996;-62
2022/04/20 05:06:36;;;;;;;;;;;;;;;-155.54;100.00;57697.75;4995100;28;19974;-62
2022/04/20 05:09:01;;;;;;;;;;;;;;;-155.54;100.00;57697.75;4994360;28;20063;-63
2022/04/20 05:11:27;;;;;;;;;;;;;;;-155.54;100.00;57697.75;5004498;28;20275;-63
2022/04/20 05:13:52;;;;;;;;;;;;;;;-155.54;100.00;57697.75;5012306;28;20373;-63
2022/04/20 05:16:17;;;;;;;;;;;;;;;-155.54;100.00;57697.75;5021154;28;20119;-63
2022/04/20 05:18:42;;;;;;;;;;;;;;;-155.54;100.00;57697.75;5021648;28;19973;-63
2022/04/20 05:21:07;;;;;;;;;;;;;;;-155.54;100.00;57697.75;5004147;28;20438;-63
2022/04/20 05:23:33;;;;;;;;;;;;;;;-155.54;100.00;57697.75;4986733;28;20095;-62
2022/04/20 05:25:58;;;;;;;;;;;;;;;-155.54;100.00;57697.75;4995808;28;20071;-62
2022/04/20 05:28:23;;;;;;;;;;;;;;;-155.54;100.00;57697.75;4993370;28;19985;-62
2022/04/20 05:30:49;;;;;;;;;;;;;;;-155.54;100.00;57697.75;4993466;28;20069;-62
2022/04/20 05:33:14;;;;;;;;;;;;;;;-155.54;100.00;57697.75;5029506;28;20026;-61
2022/04/20 05:35:39;;;;;;;;;;;;;;;-155.54;100.00;57697.75;5025918;28;19990;-61
2022/04/20 05:43:32;;;;;;;;;;;;;;;-155.54;100.00;57697.75;5028393;28;20277;-62
2022/04/20 05:45:57;;;;;;;;;;;;;;;-155.54;100.00;57697.75;5041298;28;19961;-62
2022/04/20 05:48:22;;;;;;;;;;;;;;;-155.54;100.00;57697.75;5041107;28;20495;-60
2022/04/20 05:50:48;;;;;;;;;;;;;;;-155.54;100.00;57697.75;5033887;28;19973;-62
2022/04/20 05:53:13;;;;;;;;;;;;;;;-155.54;100.00;57697.75;5031347;28;19988;-62
2022/04/20 05:55:38;;;;;;;;;;;;;;;-155.54;100.00;57697.75;5034523;28;20016;-62
2022/04/20 05:58:03;;;;;;;;;;;;;;;-155.54;100.00;57697.75;5018411;28;20486;-62
2022/04/20 06:00:29;;;;;;;;;;;;;;;-155.54;100.00;57697.75;4996137;28;20013;-63
2022/04/20 06:02:55;;;;;;;;;;;;;;;-155.54;100.00;57697.75;4988269;28;19968;-63
2022/04/20 06:05:21;;;;;;;;;;;;;;;-155.54;100.00;57697.75;4993457;28;20025;-63
2022/04/20 06:07:46;;;;;;;;;;;;;;;-155.54;100.00;57697.75;4989895;28;20030;-62
2022/04/20 06:10:11;;;;;;;;;;;;;;;-155.54;100.00;57697.75;4982200;28;20281;-63
2022/04/20 06:12:37;;;;;;;;;;;;;;;-155.54;100.00;57697.75;4992450;28;20022;-63
2022/04/20 06:15:02;;;;;;;;;;;;;;;-155.54;100.00;57697.75;4997460;28;20063;-63
2022/04/20 06:17:27;;;;;;;;;;;;;;;-155.54;100.00;57697.75;5041869;28;20096;-63
2022/04/20 06:19:53;;;;;;;;;;;;;;;-155.54;100.00;57697.75;5035474;28;19987;-63
2022/04/20 06:22:18;;;;;;;;;;;;;;;-155.54;100.00;57697.75;5045116;28;20023;-63
2022/04/20 06:24:43;;;;;;;;;;;;;;;-155.54;100.00;57697.75;5052306;28;20020;-62
2022/04/20 06:27:08;;;;;;;;;;;;;;;-155.54;100.00;57697.75;5028791;28;20339;-62
2022/04/20 06:29:34;;;;;;;;;;;;;;;-155.54;100.00;57697.75;5034682;28;19973;-63
2022/04/20 06:32:01;;;;;;;;;;;;;;;-155.54;100.00;57697.75;5010807;28;19996;-63
2022/04/20 06:34:26;;;;;;;;;;;;;;;-155.54;100.00;57697.75;5010162;28;20167;-62
2022/04/20 06:36:51;;;;;;;;;;;;;;;-155.54;100.00;57697.75;4993023;28;20035;-63
2022/04/20 06:39:16;;;;;;;;;;;;;;;-155.54;100.00;57697.75;4981461;28;19967;-63
2022/04/20 06:41:42;;;;;;;;;;;;;;;-155.54;100.00;57697.75;4982551;28;20310;-63
2022/04/20 06:44:07;;;;;;;;;;;;;;;-155.54;100.00;57697.75;5000931;28;20035;-59
2022/04/20 06:46:33;;;;;;;;;;;;;;;-155.54;100.00;57697.75;5017715;28;20011;-62
2022/04/20 06:48:58;;;;;;;;;;;;;;;-155.54;100.00;57697.75;5007884;28;19993;-63
2022/04/20 06:51:23;;;;;;;;;;;;;;;-155.54;100.00;57697.75;5020140;28;19974;-63
2022/04/20 06:59:27;;;;;;;;;;;;;;;-155.54;100.00;57697.75;5010251;28;19989;-63
2022/04/20 07:01:52;;;;;;;;;;;;;;;-155.54;100.00;57697.75;5019961;28;20007;-63
2022/04/20 07:04:18;;;;;;;;;;;;;;;-155.54;100.00;57697.75;5019345;28;19982;-63
2022/04/20 07:06:43;;;;;;;;;;;;;;;-155.54;100.00;57697.75;5011660;28;20004;-63
2022/04/20 07:09:08;;;;;;;;;;;;;;;-155.54;100.00;57697.75;5008865;28;20387;-63
2022/04/20 07:11:34;;;;;;;;;;;;;;;-155.54;100.00;57697.75;5013101;28;20014;-69
2022/04/20 07:13:59;;;;;;;;;;;;;;;-155.54;100.00;57697.75;5008642;28;20063;-70
2022/04/20 07:16:24;;;;;;;;;;;;;;;-155.54;100.00;57697.75;5008130;28;19977;-70
2022/04/20 07:18:50;;;;;;;;;;;;;;;-155.54;100.00;57697.75;4996382;28;20014;-67
2022/04/20 07:21:15;;;;;;;;;;;;;;;-155.54;100.00;57697.75;4991991;28;20000;-63
2022/04/20 07:23:40;;;;;;;;;;;;;;;-155.54;100.00;57697.75;4998346;28;20034;-66
2022/04/20 07:26:06;;;;;;;;;;;;;;;-155.54;100.00;57697.75;4989961;28;19987;-66
2022/04/20 07:28:31;;;;;;;;;;;;;;;-155.54;100.00;57697.75;5000364;28;20024;-67
2022/04/20 07:30:57;;;;;;;;;;;;;;;-155.54;100.00;57697.75;5019655;28;20086;-66
2022/04/20 07:33:22;;;;;;;;;;;;;;;-155.54;100.00;57697.75;5017643;28;20022;-66
2022/04/20 07:35:47;;;;;;;;;;;;;;;-155.54;100.00;57697.75;5003842;28;19992;-67
2022/04/20 07:38:13;;;;;;;;;;;;;;;-155.54;100.00;57697.75;4981409;28;20112;-66
2022/04/20 07:40:38;;;;;;;;;;;;;;;-155.54;100.00;57697.75;4986975;28;19981;-66
2022/04/20 07:43:03;;;;;;;;;;;;;;;-155.54;100.00;57697.75;4992558;28;20637;-66
2022/04/20 07:45:29;;;;;;;;;;;;;;;-155.54;100.00;57697.75;4992824;28;19975;-66
2022/04/20 07:47:54;;;;;;;;;;;;;;;-155.54;100.00;57697.75;4997043;28;19983;-66
2022/04/20 07:50:21;;;;;;;;;;;;;;;-155.54;100.00;57697.75;5018597;28;19958;-66
2022/04/20 07:52:50;;;;;;;;;;;;;;;-155.54;100.00;57697.75;5019287;28;20169;-67
2022/04/20 07:55:20;;;;;;;;;;;;;;;-155.54;100.00;57697.75;5015884;28;19958;-66
2022/04/20 07:57:45;;;;;;;;;;;;;;;-155.54;100.00;57697.75;4996684;28;19949;-66
2022/04/20 08:00:11;;;;;;;;;;;;;;;-155.54;100.00;57697.75;4992268;28;20496;-67
2022/04/20 08:02:36;;;;;;;;;;;;;;;-155.54;100.00;57697.75;4996284;28;20498;-67
2022/04/20 08:05:02;;;;;;;;;;;;;;;-155.54;100.00;57697.75;4997901;28;19974;-66
2022/04/20 08:07:27;;;;;;;;;;;;;;;-155.54;100.00;57697.75;4999080;28;19986;-67
2022/04/20 08:09:53;;;;;;;;;;;;;;;-155.54;100.00;57697.75;5012617;28;20409;-67
2022/04/20 08:12:18;;;;;;;;;;;;;;;-155.54;100.00;57697.75;4994239;28;20022;-67
2022/04/20 08:14:43;;;;;;;;;;;;;;;-155.54;100.00;57697.75;4988197;28;19952;-66
2022/04/20 08:17:08;;;;;;;;;;;;;;;-155.54;100.00;57697.75;5012935;28;20073;-66
2022/04/20 08:19:34;;;;;;;;;;;;;;;-155.54;100.00;57697.75;5012426;28;20013;-68
2022/04/20 08:21:59;;;;;;;;;;;;;;;-155.54;100.00;57697.75;5016894;28;19952;-66
2022/04/20 08:24:24;;;;;;;;;;;;;;;-155.54;100.00;57697.75;5017168;28;20020;-67
2022/04/20 08:26:50;;;;;;;;;;;;;;;-155.54;100.00;57697.75;5016990;28;20410;-66
2022/04/20 08:29:15;;;;;;;;;;;;;;;-155.54;100.00;57697.75;5016833;28;19964;-66
2022/04/20 08:31:40;;;;;;;;;;;;;;;-155.54;100.00;57697.75;5015981;28;19992;-66
2022/04/20 08:34:05;;;;;;;;;;;;;;;-155.54;100.00;57697.75;5015787;28;19994;-67
2022/04/20 08:36:31;;;;;;;;;;;;;;;-155.54;100.00;57697.75;5015737;28;20035;-67
2022/04/20 08:38:56;;;;;;;;;;;;;;;-155.54;100.00;57697.75;5014522;28;19988;-67
2022/04/20 08:41:21;;;;;;;;;;;;;;;-155.54;100.00;57697.75;5031882;28;19973;-68
2022/04/20 08:43:46;;;;;;;;;;;;;;;-155.54;100.00;57697.75;5015215;28;20076;-66
2022/04/20 08:46:12;;;;;;;;;;;;;;;-155.54;100.00;57697.75;5017096;28;19943;-67
2022/04/20 08:48:37;;;;;;;;;;;;;;;-155.54;100.00;57697.75;5016263;28;20000;-66
2022/04/20 08:51:05;;;;;;;;;;;;;;;-155.54;100.00;57697.75;5016663;28;20400;-66
2022/04/20 08:53:30;;;;;;;;;;;;;;;-155.54;100.00;57697.75;4993538;28;20035;-68
2022/04/20 08:58:40;;;;;;;;;;;;;;;-155.54;100.00;57697.75;4981965;28;20227;-67
2022/04/20 09:01:05;;;;;;;;;;;;;;;-155.54;100.00;57697.75;5000352;28;20579;-67
2022/04/20 09:03:31;;;;;;;;;;;;;;;-155.54;100.00;57697.75;5019399;28;19970;-68
2022/04/20 09:05:56;;;;;;;;;;;;;;;-155.54;100.00;57697.75;5029826;28;19986;-67
2022/04/20 09:08:25;;;;;;;;;;;;;;;-155.54;100.00;57697.75;4998543;28;20049;-67
2022/04/20 09:10:51;;;;;;;;;;;;;;;-155.54;100.00;57697.75;4986135;28;19955;-67
2022/04/20 09:13:16;;;;;;;;;;;;;;;-155.54;100.00;57697.75;4987135;28;20047;-67
2022/04/20 09:15:41;;;;;;;;;;;;;;;-155.54;100.00;57697.75;4990654;28;20109;-67
2022/04/20 09:18:07;;;;;;;;;;;;;;;-155.54;100.00;57697.75;4997429;28;20011;-67
2022/04/20 09:20:33;;;;;;;;;;;;;;;-155.54;100.00;57697.75;4995784;28;20246;-68
2022/04/20 09:23:07;;;;;;;;;;;;;;;-155.54;100.00;57697.75;4996150;28;19949;-68
2022/04/20 09:25:36;;;;;;;;;;;;;;;-155.54;100.00;57697.75;5014524;28;19962;-68
2022/04/20 09:28:02;;;;;;;;;;;;;;;-155.54;100.00;57697.75;5012991;28;19979;-68
2022/04/20 09:30:34;;;;;;;;;;;;;;;-155.54;100.00;57697.75;5014109;28;19979;-68
2022/04/20 09:32:59;;;;;;;;;;;;;;;-155.54;100.00;57697.75;5007264;28;19973;-68
2022/04/20 09:35:24;;;;;;;;;;;;;;;-155.54;100.00;57697.75;5013909;28;22632;-68
2022/04/20 09:38:02;;;;;;;;;;;;;;;-155.54;100.00;57697.75;4992388;28;20030;-68
2022/04/20 09:40:34;;;;;;;;;;;;;;;-155.54;100.00;57697.75;5001624;28;20252;-68
2022/04/20 09:43:04;;;;;;;;;;;;;;;-155.54;100.00;57697.75;4981682;28;19952;-68
2022/04/20 09:45:29;;;;;;;;;;;;;;;-155.54;100.00;57697.75;4995544;28;20003;-68
2022/04/20 09:50:39;;;;;;;;;;;;;;;-155.54;100.00;57697.75;5029255;28;20447;-68
2022/04/20 09:53:07;;;;;;;;;;;;;;;-155.54;100.00;57697.75;4989040;28;19983;-68
2022/04/20 09:55:36;;;;;;;;;;;;;;;-155.54;100.00;57697.75;4978482;28;20061;-68
2022/04/20 09:58:15;;;;;;;;;;;;;;;-155.54;100.00;57697.75;4990148;28;20232;-69
2022/04/20 10:00:48;;;;;;;;;;;;;;;-155.54;100.00;57697.75;5009122;28;20545;-66
2022/04/20 10:03:24;;;;;;;;;;;;;;;-155.54;100.00;57697.75;5017546;28;20314;-68
2022/04/20 10:05:49;;;;;;;;;;;;;;;-155.54;100.00;57697.75;5034191;28;19943;-68
2022/04/20 10:08:14;;;;;;;;;;;;;;;-155.54;100.00;57697.75;4998358;28;19955;-68
2022/04/20 10:10:39;;;;;;;;;;;;;;;-155.54;100.00;57697.75;4979977;28;19978;-68
2022/04/20 10:13:05;;;;;;;;;;;;;;;-155.54;100.00;57697.75;4987000;28;19973;-68
2022/04/20 10:18:18;;;;;;;;;;;;;;;-155.54;100.00;57697.75;4985566;28;20081;-68
2022/04/20 10:20:46;;;;;;;;;;;;;;;-155.54;100.00;57697.75;4983705;28;20522;-67
2022/04/20 10:23:11;;;;;;;;;;;;;;;-155.54;100.00;57697.75;4984253;28;19951;-68
2022/04/20 10:25:36;;;;;;;;;;;;;;;-155.54;100.00;57697.75;4993021;28;20044;-68
2022/04/20 10:28:05;;;;;;;;;;;;;;;-155.54;100.00;57697.75;4984753;28;19965;-68
2022/04/20 10:30:32;;;;;;;;;;;;;;;-155.54;100.00;57697.75;4992859;28;20062;-68
2022/04/20 10:32:59;;;;;;;;;;;;;;;-155.54;100.00;57697.75;4991204;28;19970;-68
2022/04/20 10:35:25;;;;;;;;;;;;;;;-155.54;100.00;57697.75;4990759;28;19956;-68
2022/04/20 10:38:09;;;;;;;;;;;;;;;-155.54;100.00;57697.75;5018864;28;19944;-68
2022/04/20 10:40:34;;;;;;;;;;;;;;;-155.54;100.00;57697.75;5016466;28;20217;-69
2022/04/20 10:43:29;;;;;;;;;;;;;;;-155.54;100.00;57697.75;5004805;28;19939;-69
2022/04/20 10:46:00;;;;;;;;;;;;;;;-155.54;100.00;57697.75;5001305;28;20065;-69
2022/04/20 10:48:26;;;;;;;;;;;;;;;-155.54;100.00;57697.75;5006838;28;20001;-69
2022/04/20 10:51:18;;;;;;;;;;;;;;;-155.54;100.00;57697.75;5013150;28;19960;-68
2022/04/20 10:53:43;;;;;;;;;;;;;;;-155.54;100.00;57697.75;5001710;28;19996;-67
2022/04/20 10:56:08;;;;;;;;;;;;;;;-155.54;100.00;57697.75;5015799;28;19947;-68
2022/04/20 10:58:35;;;;;;;;;;;;;;;-155.54;100.00;57697.75;5015800;28;19932;-69
2022/04/20 11:01:10;;;;;;;;;;;;;;;-155.54;100.00;57697.75;5019226;28;19956;-67
2022/04/20 11:04:05;;;;;;;;;;;;;;;-155.54;100.00;57697.75;5014989;28;19969;-69
2022/04/20 11:07:00;;;;;;;;;;;;;;;-155.54;100.00;57697.75;5014548;28;20411;-70
2022/04/20 11:09:46;;;;;;;;;;;;;;;-155.54;100.00;57697.75;5002730;28;20274;-68
2022/04/20 11:21:01;;;;;;;;;;;;;;;-155.54;100.00;57697.75;5020608;28;19943;-69
2022/04/20 11:23:45;;;;;;;;;;;;;;;-155.54;100.00;57697.75;5012068;28;19955;-68
2022/04/20 11:26:10;;;;;;;;;;;;;;;-155.54;100.00;57697.75;5025409;28;20389;-67
2022/04/20 11:28:39;;;;;;;;;;;;;;;-155.54;100.00;57697.75;5011392;28;20147;-68
2022/04/20 11:31:04;;;;;;;;;;;;;;;-155.54;100.00;57697.75;5005024;28;20334;-69
2022/04/20 11:33:32;;;;;;;;;;;;;;;-155.54;100.00;57697.75;5013823;28;19971;-68
2022/04/20 11:35:57;;;;;;;;;;;;;;;-155.54;100.00;57697.75;5014774;28;20209;-68
2022/04/20 11:38:34;;;;;;;;;;;;;;;-155.54;100.00;57697.75;5022771;28;19937;-67
2022/04/20 11:40:59;;;;;;;;;;;;;;;-155.54;100.00;57697.75;5013407;28;20366;-67
2022/04/20 11:43:28;;;;;;;;;;;;;;;-155.54;100.00;57697.75;5018404;28;19967;-67
2022/04/20 11:45:53;;;;;;;;;;;;;;;-155.54;100.00;57697.75;4996608;28;20459;-67
2022/04/20 11:48:20;;;;;;;;;;;;;;;-155.54;100.00;57697.75;5001950;28;19921;-67
2022/04/20 11:50:53;;;;;;;;;;;;;;;-155.54;100.00;57697.75;4996072;28;19997;-67
2022/04/20 11:53:19;;;;;;;;;;;;;;;-155.54;100.00;57697.75;4986994;28;20524;-67
2022/04/20 11:55:45;;;;;;;;;;;;;;;-155.54;100.00;57697.75;5003131;28;20247;-67
2022/04/20 11:58:12;;;;;;;;;;;;;;;-155.54;100.00;57697.75;5032339;28;19912;-67
2022/04/20 12:00:37;;;;;;;;;;;;;;;-155.54;100.00;57697.75;5030417;28;20144;-67
2022/04/20 12:03:02;;;;;;;;;;;;;;;-155.54;100.00;57697.75;5006536;28;19921;-66
2022/04/20 12:05:27;;;;;;;;;;;;;;;-155.54;100.00;57697.75;4984286;28;19929;-68
2022/04/20 12:07:53;;;;;;;;;;;;;;;-155.54;100.00;57697.75;4994416;28;20139;-67
2022/04/20 12:10:18;;;;;;;;;;;;;;;-155.54;100.00;57697.75;4990117;28;20408;-67
2022/04/20 12:12:44;;;;;;;;;;;;;;;-155.54;100.00;57697.75;4996334;28;19952;-68
2022/04/20 12:15:09;;;;;;;;;;;;;;;-155.54;100.00;57697.75;4999884;28;19957;-68
2022/04/20 12:17:34;;;;;;;;;;;;;;;-155.54;100.00;57697.75;5035033;28;19913;-69
2022/04/20 12:20:00;;;;;;;;;;;;;;;-155.54;100.00;57697.75;5027059;28;19927;-67
2022/04/20 12:22:25;;;;;;;;;;;;;;;-155.54;100.00;57697.75;5038551;28;20376;-68
2022/04/20 12:25:06;;;;;;;;;;;;;;;-155.54;100.00;57697.75;5038582;28;19952;-68
2022/04/20 12:27:32;;;;;;;;;;;;;;;-155.54;100.00;57697.75;5012560;28;20618;-67
2022/04/20 12:29:58;;;;;;;;;;;;;;;-155.54;100.00;57697.75;5036461;28;19916;-67
2022/04/20 12:32:27;;;;;;;;;;;;;;;-155.54;100.00;57697.75;5024629;28;19924;-67
2022/04/20 12:34:54;;;;;;;;;;;;;;;-155.54;100.00;57697.75;5035917;28;19954;-67
2022/04/20 12:37:20;;;;;;;;;;;;;;;-155.54;100.00;57697.75;5036457;28;19916;-66
2022/04/20 12:39:45;;;;;;;;;;;;;;;-155.54;100.00;57697.75;5026164;28;20353;-67
2022/04/20 12:42:11;;;;;;;;;;;;;;;-155.54;100.00;57697.75;5037463;28;19955;-67
2022/04/20 12:44:38;;;;;;;;;;;;;;;-155.54;100.00;57697.75;4992383;28;19921;-67
2022/04/20 12:47:14;;;;;;;;;;;;;;;-155.54;100.00;57697.75;4987160;28;19944;-68